sensor_id;sensor_type;location;lat;lon;timestamp;pressure;altitude;pressure_sealevel;temperature;humidity
50650;BME280;36621;60.058;30.346;2023-03-26T00:02:44;99405.88;;;3.91;69.51
50650;BME280;36621;60.058;30.346;2023-03-26T00:10:16;99398.81;;;3.85;70.07
50650;BME280;36621;60.058;30.346;2023-03-26T00:17:48;99391.50;;;3.85;70.02
50650;BME280;36621;60.058;30.346;2023-03-26T00:25:22;99370.13;;;3.78;69.98
50650;BME280;36621;60.058;30.346;2023-03-26T00:32:54;99377.75;;;3.87;70.40
50650;BME280;36621;60.058;30.346;2023-03-26T00:40:26;99400.28;;;4.08;70.25
50650;BME280;36621;60.058;30.346;2023-03-26T00:48:00;99383.25;;;4.07;70.64
50650;BME280;36621;60.058;30.346;2023-03-26T00:55:33;99393.28;;;4.12;70.73
50650;BME280;36621;60.058;30.346;2023-03-26T01:03:05;99400.00;;;4.04;71.27
50650;BME280;36621;60.058;30.346;2023-03-26T01:10:38;99382.25;;;3.71;72.09
50650;BME280;36621;60.058;30.346;2023-03-26T01:18:12;99373.09;;;3.77;71.60
50650;BME280;36621;60.058;30.346;2023-03-26T01:25:48;99376.44;;;3.89;72.18
50650;BME280;36621;60.058;30.346;2023-03-26T01:33:27;99389.34;;;3.82;73.58
50650;BME280;36621;60.058;30.346;2023-03-26T01:41:08;99360.06;;;3.63;74.53
50650;BME280;36621;60.058;30.346;2023-03-26T01:48:43;99354.66;;;3.58;74.05
50650;BME280;36621;60.058;30.346;2023-03-26T01:56:19;99332.53;;;3.61;72.85
50650;BME280;36621;60.058;30.346;2023-03-26T02:04:00;99355.34;;;3.91;73.80
50650;BME280;36621;60.058;30.346;2023-03-26T02:11:38;99354.34;;;3.97;73.42
50650;BME280;36621;60.058;30.346;2023-03-26T02:19:11;99325.34;;;3.77;72.34
50650;BME280;36621;60.058;30.346;2023-03-26T02:26:47;99351.06;;;3.95;73.22
50650;BME280;36621;60.058;30.346;2023-03-26T02:34:19;99357.59;;;4.05;72.74
50650;BME280;36621;60.058;30.346;2023-03-26T02:41:58;99367.94;;;4.18;72.92
50650;BME280;36621;60.058;30.346;2023-03-26T02:49:33;99369.81;;;4.17;73.18
50650;BME280;36621;60.058;30.346;2023-03-26T02:57:06;99373.41;;;4.33;73.33
50650;BME280;36621;60.058;30.346;2023-03-26T03:04:44;99358.25;;;4.32;72.73
50650;BME280;36621;60.058;30.346;2023-03-26T03:12:17;99351.72;;;4.23;72.76
50650;BME280;36621;60.058;30.346;2023-03-26T03:19:49;99348.97;;;4.13;73.03
50650;BME280;36621;60.058;30.346;2023-03-26T03:27:22;99283.44;;;3.64;72.89
50650;BME280;36621;60.058;30.346;2023-03-26T03:35:07;99357.34;;;4.11;72.89
50650;BME280;36621;60.058;30.346;2023-03-26T03:42:41;99355.47;;;4.17;73.00
50650;BME280;36621;60.058;30.346;2023-03-26T03:50:14;99359.28;;;4.21;72.97
50650;BME280;36621;60.058;30.346;2023-03-26T03:58:00;99354.97;;;4.25;72.89
50650;BME280;36621;60.058;30.346;2023-03-26T04:05:34;99351.16;;;4.11;73.45
50650;BME280;36621;60.058;30.346;2023-03-26T04:13:07;99324.13;;;4.11;73.16
50650;BME280;36621;60.058;30.346;2023-03-26T04:20:57;99334.16;;;4.21;72.39
50650;BME280;36621;60.058;30.346;2023-03-26T04:28:41;99361.22;;;4.36;73.10
50650;BME280;36621;60.058;30.346;2023-03-26T04:36:28;99298.69;;;3.96;73.00
50650;BME280;36621;60.058;30.346;2023-03-26T04:44:04;99342.00;;;4.22;72.47
50650;BME280;36621;60.058;30.346;2023-03-26T04:51:56;99193.13;;;3.29;72.16
50650;BME280;36621;60.058;30.346;2023-03-26T05:00:01;99351.47;;;4.25;72.59
50650;BME280;36621;60.058;30.346;2023-03-26T05:07:48;99349.28;;;4.16;72.95
50650;BME280;36621;60.058;30.346;2023-03-26T05:15:24;99326.03;;;4.15;73.03
50650;BME280;36621;60.058;30.346;2023-03-26T05:23:15;99366.38;;;4.38;72.40
50650;BME280;36621;60.058;30.346;2023-03-26T05:30:53;99370.19;;;4.47;73.07
50650;BME280;36621;60.058;30.346;2023-03-26T05:38:27;99351.75;;;4.28;71.94
50650;BME280;36621;60.058;30.346;2023-03-26T05:46:01;99382.53;;;4.27;72.48
50650;BME280;36621;60.058;30.346;2023-03-26T05:53:36;99380.97;;;4.37;72.87
50650;BME280;36621;60.058;30.346;2023-03-26T06:01:27;99389.09;;;4.42;71.92
50650;BME280;36621;60.058;30.346;2023-03-26T06:09:31;99372.31;;;4.34;72.94
50650;BME280;36621;60.058;30.346;2023-03-26T06:17:04;99391.50;;;4.38;72.41
50650;BME280;36621;60.058;30.346;2023-03-26T06:24:56;99397.41;;;4.30;72.28
50650;BME280;36621;60.058;30.346;2023-03-26T06:32:59;99404.22;;;4.43;71.81
50650;BME280;36621;60.058;30.346;2023-03-26T06:40:36;99400.34;;;4.23;72.01
50650;BME280;36621;60.058;30.346;2023-03-26T06:48:32;99402.72;;;4.09;72.99
50650;BME280;36621;60.058;30.346;2023-03-26T06:56:23;99369.44;;;3.93;73.61
50650;BME280;36621;60.058;30.346;2023-03-26T07:04:26;99400.00;;;4.04;72.91
50650;BME280;36621;60.058;30.346;2023-03-26T07:12:16;99414.63;;;3.65;73.58
50650;BME280;36621;60.058;30.346;2023-03-26T07:20:24;99419.00;;;3.77;73.59
50650;BME280;36621;60.058;30.346;2023-03-26T07:28:04;99397.00;;;4.00;73.91
50650;BME280;36621;60.058;30.346;2023-03-26T07:36:18;99373.09;;;3.72;73.65
50650;BME280;36621;60.058;30.346;2023-03-26T07:44:35;99431.16;;;4.22;73.25
50650;BME280;36621;60.058;30.346;2023-03-26T07:52:44;99403.91;;;3.76;73.02
50650;BME280;36621;60.058;30.346;2023-03-26T08:00:46;99404.91;;;3.70;73.74
50650;BME280;36621;60.058;30.346;2023-03-26T08:08:25;99426.66;;;3.53;74.20
50650;BME280;36621;60.058;30.346;2023-03-26T08:16:27;99421.75;;;3.82;74.47
50650;BME280;36621;60.058;30.346;2023-03-26T08:24:07;99438.22;;;3.86;73.11
50650;BME280;36621;60.058;30.346;2023-03-26T08:31:43;99382.03;;;3.82;73.19
50650;BME280;36621;60.058;30.346;2023-03-26T08:39:18;99433.88;;;4.27;72.20
50650;BME280;36621;60.058;30.346;2023-03-26T08:47:07;99435.63;;;4.01;73.25
50650;BME280;36621;60.058;30.346;2023-03-26T08:55:03;99448.13;;;4.12;73.11
50650;BME280;36621;60.058;30.346;2023-03-26T09:11:23;99439.97;;;4.60;73.20
50650;BME280;36621;60.058;30.346;2023-03-26T09:27:08;99438.22;;;4.28;73.32
50650;BME280;36621;60.058;30.346;2023-03-26T09:35:17;99423.78;;;4.07;73.51
50650;BME280;36621;60.058;30.346;2023-03-26T09:50:59;99440.91;;;3.80;74.95
50650;BME280;36621;60.058;30.346;2023-03-26T09:59:10;99432.31;;;4.42;73.99
50650;BME280;36621;60.058;30.346;2023-03-26T10:06:51;99466.16;;;4.49;72.94
50650;BME280;36621;60.058;30.346;2023-03-26T10:14:34;99471.91;;;4.68;72.64
50650;BME280;36621;60.058;30.346;2023-03-26T10:22:23;99474.06;;;4.61;72.32
50650;BME280;36621;60.058;30.346;2023-03-26T10:30:13;99445.38;;;4.07;73.05
50650;BME280;36621;60.058;30.346;2023-03-26T10:38:00;99416.91;;;4.37;73.58
50650;BME280;36621;60.058;30.346;2023-03-26T10:45:47;99462.78;;;4.85;71.92
50650;BME280;36621;60.058;30.346;2023-03-26T10:53:30;99478.25;;;5.15;71.85
50650;BME280;36621;60.058;30.346;2023-03-26T11:01:15;99478.03;;;5.22;70.63
50650;BME280;36621;60.058;30.346;2023-03-26T11:08:55;99459.84;;;5.02;70.71
50650;BME280;36621;60.058;30.346;2023-03-26T11:16:40;99381.59;;;4.64;69.87
50650;BME280;36621;60.058;30.346;2023-03-26T11:24:37;99397.41;;;4.30;70.73
50650;BME280;36621;60.058;30.346;2023-03-26T11:32:16;99502.81;;;4.83;69.85
50650;BME280;36621;60.058;30.346;2023-03-26T11:39:55;99497.81;;;4.59;70.28
50650;BME280;36621;60.058;30.346;2023-03-26T11:47:34;99470.19;;;4.52;70.69
50650;BME280;36621;60.058;30.346;2023-03-26T11:55:10;99489.97;;;4.58;70.02
50650;BME280;36621;60.058;30.346;2023-03-26T12:02:45;99493.50;;;4.63;70.14
50650;BME280;36621;60.058;30.346;2023-03-26T12:10:23;99450.47;;;4.46;70.02
50650;BME280;36621;60.058;30.346;2023-03-26T12:18:18;99503.94;;;4.39;70.93
50650;BME280;36621;60.058;30.346;2023-03-26T12:26:04;99494.78;;;4.45;71.03
50650;BME280;36621;60.058;30.346;2023-03-26T12:33:43;99481.09;;;4.14;70.13
50650;BME280;36621;60.058;30.346;2023-03-26T12:41:17;99489.69;;;3.69;70.00
50650;BME280;36621;60.058;30.346;2023-03-26T12:48:51;99470.22;;;3.67;70.88
50650;BME280;36621;60.058;30.346;2023-03-26T12:56:29;99461.41;;;3.44;71.79
50650;BME280;36621;60.058;30.346;2023-03-26T13:04:18;99489.38;;;3.97;70.96
50650;BME280;36621;60.058;30.346;2023-03-26T13:12:05;99490.38;;;3.91;70.89
50650;BME280;36621;60.058;30.346;2023-03-26T13:19:46;99497.13;;;4.26;70.12
50650;BME280;36621;60.058;30.346;2023-03-26T13:27:34;99494.69;;;3.55;71.49
50650;BME280;36621;60.058;30.346;2023-03-26T13:35:20;99492.06;;;3.97;71.23
50650;BME280;36621;60.058;30.346;2023-03-26T13:43:17;99502.75;;;3.82;71.53
50650;BME280;36621;60.058;30.346;2023-03-26T13:51:00;99500.47;;;3.69;71.20
50650;BME280;36621;60.058;30.346;2023-03-26T13:58:39;99358.00;;;3.01;70.58
50650;BME280;36621;60.058;30.346;2023-03-26T14:06:34;99425.69;;;3.32;70.56
50650;BME280;36621;60.058;30.346;2023-03-26T14:14:15;99522.09;;;3.41;71.38
50650;BME280;36621;60.058;30.346;2023-03-26T14:21:56;99484.66;;;3.23;71.93
50650;BME280;36621;60.058;30.346;2023-03-26T14:29:47;99516.78;;;3.24;71.69
50650;BME280;36621;60.058;30.346;2023-03-26T14:37:51;99427.53;;;2.49;72.41
50650;BME280;36621;60.058;30.346;2023-03-26T14:45:48;99444.03;;;2.53;73.59
50650;BME280;36621;60.058;30.346;2023-03-26T14:53:28;99511.00;;;2.88;72.67
50650;BME280;36621;60.058;30.346;2023-03-26T15:01:20;99484.75;;;2.56;73.41
50650;BME280;36621;60.058;30.346;2023-03-26T15:17:41;99520.06;;;2.38;73.39
50650;BME280;36621;60.058;30.346;2023-03-26T15:25:55;99526.94;;;1.95;74.81
50650;BME280;36621;60.058;30.346;2023-03-26T15:34:02;99498.06;;;2.07;74.95
50650;BME280;36621;60.058;30.346;2023-03-26T15:41:48;99436.38;;;1.66;73.39
50650;BME280;36621;60.058;30.346;2023-03-26T15:49:37;99505.59;;;1.88;73.75
50650;BME280;36621;60.058;30.346;2023-03-26T15:57:17;99507.63;;;1.64;73.67
50650;BME280;36621;60.058;30.346;2023-03-26T16:04:52;99530.22;;;1.97;73.05
50650;BME280;36621;60.058;30.346;2023-03-26T16:12:30;99532.66;;;1.81;73.13
50650;BME280;36621;60.058;30.346;2023-03-26T16:20:18;99550.44;;;1.99;73.03
50650;BME280;36621;60.058;30.346;2023-03-26T16:28:29;99517.06;;;1.83;73.00
50650;BME280;36621;60.058;30.346;2023-03-26T16:36:07;99515.72;;;1.81;72.34
50650;BME280;36621;60.058;30.346;2023-03-26T16:44:16;99463.97;;;1.28;72.64
50650;BME280;36621;60.058;30.346;2023-03-26T17:01:26;99486.03;;;0.84;74.53
50650;BME280;36621;60.058;30.346;2023-03-26T17:09:16;99554.34;;;1.29;74.54
50650;BME280;36621;60.058;30.346;2023-03-26T17:17:10;99526.19;;;1.19;73.87
50650;BME280;36621;60.058;30.346;2023-03-26T17:24:52;99523.88;;;1.11;74.02
50650;BME280;36621;60.058;30.346;2023-03-26T17:32:55;99551.00;;;1.10;74.15
50650;BME280;36621;60.058;30.346;2023-03-26T17:40:42;99559.19;;;1.15;73.34
50650;BME280;36621;60.058;30.346;2023-03-26T17:48:19;99547.22;;;1.23;74.04
50650;BME280;36621;60.058;30.346;2023-03-26T17:55:52;99511.81;;;0.97;72.89
50650;BME280;36621;60.058;30.346;2023-03-26T18:03:29;99547.59;;;1.26;73.12
50650;BME280;36621;60.058;30.346;2023-03-26T18:11:15;99562.19;;;1.18;74.40
50650;BME280;36621;60.058;30.346;2023-03-26T18:27:35;99490.50;;;0.66;73.71
50650;BME280;36621;60.058;30.346;2023-03-26T18:35:17;99530.91;;;0.72;74.84
50650;BME280;36621;60.058;30.346;2023-03-26T18:42:56;99428.59;;;0.32;73.89
50650;BME280;36621;60.058;30.346;2023-03-26T18:50:35;99549.81;;;0.89;73.31
50650;BME280;36621;60.058;30.346;2023-03-26T18:58:19;99566.91;;;1.40;73.34
50650;BME280;36621;60.058;30.346;2023-03-26T19:05:54;99564.88;;;0.90;73.76
50650;BME280;36621;60.058;30.346;2023-03-26T19:13:28;99487.78;;;0.38;73.17
50650;BME280;36621;60.058;30.346;2023-03-26T19:21:00;99550.69;;;1.06;72.45
50650;BME280;36621;60.058;30.346;2023-03-26T19:28:37;99552.72;;;1.28;71.97
50650;BME280;36621;60.058;30.346;2023-03-26T19:36:16;99529.16;;;0.77;73.12
50650;BME280;36621;60.058;30.346;2023-03-26T19:43:54;99516.75;;;0.76;73.49
50650;BME280;36621;60.058;30.346;2023-03-26T19:51:32;99482.53;;;0.31;74.46
50650;BME280;36621;60.058;30.346;2023-03-26T19:59:05;99515.19;;;0.51;74.15
50650;BME280;36621;60.058;30.346;2023-03-26T20:06:37;99530.38;;;0.34;74.68
50650;BME280;36621;60.058;30.346;2023-03-26T20:14:13;99529.56;;;0.45;75.49
50650;BME280;36621;60.058;30.346;2023-03-26T20:21:45;99509.13;;;0.44;74.43
50650;BME280;36621;60.058;30.346;2023-03-26T20:29:18;99519.50;;;0.52;73.47
50650;BME280;36621;60.058;30.346;2023-03-26T20:36:51;99540.66;;;0.61;74.69
50650;BME280;36621;60.058;30.346;2023-03-26T20:44:26;99516.59;;;0.42;74.60
50650;BME280;36621;60.058;30.346;2023-03-26T20:51:58;99522.69;;;0.38;75.30
50650;BME280;36621;60.058;30.346;2023-03-26T20:59:31;99516.94;;;-0.02;76.39
50650;BME280;36621;60.058;30.346;2023-03-26T21:07:03;99515.22;;;0.28;76.05
50650;BME280;36621;60.058;30.346;2023-03-26T21:14:39;99488.97;;;0.06;74.82
50650;BME280;36621;60.058;30.346;2023-03-26T21:22:26;99482.88;;;0.11;76.08
50650;BME280;36621;60.058;30.346;2023-03-26T21:30:04;99488.38;;;-0.20;76.24
50650;BME280;36621;60.058;30.346;2023-03-26T21:37:37;99520.69;;;0.33;74.84
50650;BME280;36621;60.058;30.346;2023-03-26T21:45:11;99501.72;;;0.63;74.07
50650;BME280;36621;60.058;30.346;2023-03-26T21:52:44;99519.59;;;0.58;73.46
50650;BME280;36621;60.058;30.346;2023-03-26T22:00:22;99533.28;;;0.56;73.44
50650;BME280;36621;60.058;30.346;2023-03-26T22:07:58;99523.81;;;0.65;73.24
50650;BME280;36621;60.058;30.346;2023-03-26T22:15:32;99492.91;;;0.27;73.27
50650;BME280;36621;60.058;30.346;2023-03-26T22:23:07;99509.72;;;0.46;73.50
50650;BME280;36621;60.058;30.346;2023-03-26T22:30:40;99495.13;;;0.42;73.49
50650;BME280;36621;60.058;30.346;2023-03-26T22:38:12;99474.81;;;-0.25;74.07
50650;BME280;36621;60.058;30.346;2023-03-26T22:45:48;99514.28;;;0.34;74.50
50650;BME280;36621;60.058;30.346;2023-03-26T22:53:20;99518.59;;;0.35;74.04
50650;BME280;36621;60.058;30.346;2023-03-26T23:01:00;99493.97;;;-0.09;74.48
50650;BME280;36621;60.058;30.346;2023-03-26T23:08:33;99499.69;;;0.06;73.70
50650;BME280;36621;60.058;30.346;2023-03-26T23:16:09;99476.94;;;0.21;73.79
50650;BME280;36621;60.058;30.346;2023-03-26T23:23:42;99498.75;;;0.24;73.96
50650;BME280;36621;60.058;30.346;2023-03-26T23:31:15;99495.59;;;0.15;74.32
50650;BME280;36621;60.058;30.346;2023-03-26T23:38:47;99495.50;;;0.22;74.15
50650;BME280;36621;60.058;30.346;2023-03-26T23:46:21;99489.75;;;0.19;74.43
50650;BME280;36621;60.058;30.346;2023-03-26T23:53:53;99502.03;;;0.26;75.06
